Аэропорт
Сыктывкар (UUYY)

 UUYY / SCW
ЗЦ Санкт-Петербург
Сыктывкар (UUYY)
Сыктывкар (UUYY)
 61.64700, 50.84510  / 342 ft

 UUYY 212030Z 03003MPS 3500 -SHSN BKN006 OVC013CB M01/M01 Q1008 R01/590333 TEMPO 0500 +SHSN RMK QFE747/0996
 TAF UUYY 211100Z 2112/2212 05003G08MPS 2100 -SHSN BKN007 BKN015CB TEMPO 2112/2124 08003G08MPS 0500 +SHSN BKN003 BKN012CB TEMPO 2200/2209 1000 SHSN BR BKN005 BKN010CB
показать схемы

Аэродром "Сыктывкар" (UUYY)

Рекомендованные сценарии:

FS2004 от Aniter

P3D/FSX от Aniter 

Схемы:

АИП

Средства связи ОВД:

UUYY_R_APP - Сивкар-Круг - 124.600

UUYY_TWR - Сивкар-Старт - 124.600

UUYY_ATIS - Сивкар-АТИС (русский, английский) - 126.600



2017 © VATRUS division